createdAt,value
2018-06-15T00:02:19.839Z,95.20
2018-06-15T00:04:47.242Z,95.10
2018-06-15T00:07:14.678Z,95.10
2018-06-15T00:09:42.093Z,95.10
2018-06-15T00:12:09.521Z,95.10
2018-06-15T00:14:36.913Z,95.20
2018-06-15T00:17:04.404Z,94.90
2018-06-15T00:19:31.903Z,94.90
2018-06-15T00:21:59.312Z,95.10
2018-06-15T00:24:26.832Z,95.20
2018-06-15T00:26:54.249Z,95.00
2018-06-15T00:29:21.792Z,95.20
2018-06-15T00:31:49.224Z,95.10
2018-06-15T00:34:16.841Z,94.90
2018-06-15T00:36:44.293Z,95.00
2018-06-15T00:39:12.744Z,94.90
2018-06-15T00:41:41.059Z,95.10
2018-06-15T00:44:08.500Z,95.10
2018-06-15T00:46:35.937Z,95.20
2018-06-15T00:49:03.454Z,95.10
2018-06-15T00:51:30.908Z,95.10
2018-06-15T00:53:58.617Z,95.10
2018-06-15T00:58:53.463Z,95.40
2018-06-15T01:01:20.888Z,95.20
2018-06-15T01:03:48.377Z,95.20
2018-06-15T01:06:15.820Z,95.20
2018-06-15T01:08:43.232Z,95.20
2018-06-15T01:11:10.664Z,95.30
2018-06-15T01:13:38.076Z,95.30
2018-06-15T01:16:05.658Z,95.20
2018-06-15T01:18:33.081Z,95.30
2018-06-15T01:21:00.482Z,95.40
2018-06-15T01:23:27.943Z,95.40
2018-06-15T01:25:55.351Z,95.50
2018-06-15T01:28:22.758Z,95.70
2018-06-15T01:30:50.218Z,95.70
2018-06-15T01:33:17.624Z,95.60
2018-06-15T01:35:45.037Z,95.80
2018-06-15T01:38:12.469Z,95.60
2018-06-15T01:40:39.882Z,95.80
2018-06-15T01:43:07.334Z,95.40
2018-06-15T01:45:34.765Z,95.60
2018-06-15T01:48:02.221Z,95.70
2018-06-15T01:50:29.637Z,95.60
2018-06-15T01:52:57.038Z,95.60
2018-06-15T01:55:24.475Z,95.70
2018-06-15T01:57:51.950Z,95.70
2018-06-15T02:00:19.387Z,95.80
2018-06-15T02:02:46.785Z,95.70
2018-06-15T02:05:14.225Z,95.80
2018-06-15T02:07:41.912Z,95.80
2018-06-15T02:10:09.333Z,95.80
2018-06-15T02:12:36.826Z,95.70
2018-06-15T02:15:04.478Z,95.70
2018-06-15T02:17:31.993Z,95.80
2018-06-15T02:19:59.525Z,95.90
2018-06-15T02:22:27.012Z,95.90
2018-06-15T02:24:54.545Z,96.00
2018-06-15T02:27:22.126Z,96.10
2018-06-15T02:29:49.620Z,96.20
2018-06-15T02:32:17.118Z,96.20
2018-06-15T02:34:44.706Z,96.30
2018-06-15T02:37:12.259Z,96.40
2018-06-15T02:39:39.781Z,96.40
2018-06-15T02:42:07.298Z,96.40
2018-06-15T02:44:34.834Z,96.40
2018-06-15T02:47:02.364Z,96.40
2018-06-15T02:49:29.885Z,96.40
2018-06-15T02:51:57.414Z,96.40
2018-06-15T02:54:24.923Z,96.50
2018-06-15T02:56:52.505Z,96.60
2018-06-15T02:59:26.783Z,96.60
2018-06-15T03:01:54.302Z,96.70
2018-06-15T03:04:21.798Z,96.70
2018-06-15T03:06:49.329Z,96.50
2018-06-15T03:09:16.851Z,96.40
2018-06-15T03:11:44.437Z,96.40
2018-06-15T03:14:12.013Z,96.30
2018-06-15T03:16:39.535Z,96.40
2018-06-15T03:19:07.029Z,96.50
2018-06-15T03:21:34.770Z,96.50
2018-06-15T03:24:02.273Z,96.40
2018-06-15T03:26:29.916Z,96.60
2018-06-15T03:28:57.409Z,96.70
2018-06-15T03:31:24.920Z,96.80
2018-06-15T03:33:52.505Z,96.90
2018-06-15T03:36:20.026Z,96.90
2018-06-15T03:38:47.552Z,97.00
2018-06-15T03:41:15.107Z,97.00
2018-06-15T03:43:42.612Z,97.00
2018-06-15T03:46:10.126Z,96.90
2018-06-15T03:48:37.654Z,97.30
2018-06-15T03:51:05.178Z,97.00
2018-06-15T03:53:32.702Z,97.00
2018-06-15T03:56:00.225Z,97.10
2018-06-15T03:58:27.805Z,97.10
2018-06-15T04:00:55.323Z,97.10
2018-06-15T04:03:22.878Z,96.90
2018-06-15T04:05:50.495Z,97.00
2018-06-15T04:08:18.361Z,97.20
2018-06-15T04:10:45.883Z,97.10
2018-06-15T04:13:13.480Z,97.00
2018-06-15T04:15:41.005Z,97.10
2018-06-15T04:18:08.561Z,96.90
2018-06-15T04:20:37.365Z,96.90
2018-06-15T04:23:05.256Z,96.80
2018-06-15T04:25:32.773Z,96.70
2018-06-15T04:32:55.604Z,96.50
2018-06-15T04:35:23.149Z,96.30
2018-06-15T04:37:50.689Z,96.10
2018-06-15T04:40:18.205Z,96.10
2018-06-15T04:42:45.824Z,95.80
2018-06-15T04:45:13.383Z,95.70
2018-06-15T04:47:40.913Z,95.80
2018-06-15T04:50:08.803Z,96.00
2018-06-15T04:52:36.318Z,96.00
2018-06-15T04:57:31.665Z,95.80
2018-06-15T04:59:59.561Z,95.60
2018-06-15T05:02:27.417Z,95.60
2018-06-15T05:04:55.081Z,95.60
2018-06-15T05:07:22.616Z,95.40
2018-06-15T05:12:18.299Z,94.90
2018-06-15T05:14:45.862Z,95.10
2018-06-15T05:17:13.396Z,94.80
2018-06-15T05:19:41.235Z,94.70
2018-06-15T05:22:08.994Z,94.70
2018-06-15T05:24:36.863Z,94.60
2018-06-15T05:27:04.475Z,94.20
2018-06-15T05:29:32.036Z,94.20
2018-06-15T05:31:59.818Z,94.10
2018-06-15T05:34:27.368Z,94.00
2018-06-15T05:36:54.954Z,94.10
2018-06-15T05:39:22.475Z,94.20
2018-06-15T05:41:49.976Z,94.20
2018-06-15T05:44:17.549Z,94.00
2018-06-15T05:49:12.693Z,93.50
2018-06-15T05:51:40.967Z,93.30
2018-06-15T05:54:08.549Z,92.50
2018-06-15T05:56:36.077Z,92.50
2018-06-15T05:59:03.627Z,92.80
2018-06-15T06:01:31.303Z,92.60
2018-06-15T06:03:58.837Z,92.20
2018-06-15T06:06:26.389Z,91.00
2018-06-15T06:08:53.915Z,90.70
2018-06-15T06:11:21.629Z,90.00
2018-06-15T06:13:49.181Z,90.70
2018-06-15T06:16:16.765Z,90.30
2018-06-15T06:18:44.282Z,90.10
2018-06-15T06:21:13.193Z,90.60
2018-06-15T06:23:40.754Z,91.00
2018-06-15T06:26:08.340Z,90.80
2018-06-15T06:28:37.372Z,91.60
2018-06-15T06:31:05.261Z,91.70
2018-06-15T06:33:32.777Z,91.20
2018-06-15T06:36:00.445Z,91.70
2018-06-15T06:38:28.326Z,91.50
2018-06-15T06:43:23.294Z,91.90
2018-06-15T06:45:50.833Z,91.50
2018-06-15T06:48:18.341Z,90.50
2018-06-15T06:50:45.850Z,90.00
2018-06-15T06:53:13.355Z,89.20
2018-06-15T06:55:40.886Z,89.10
2018-06-15T06:58:08.478Z,89.00
2018-06-15T07:00:36.125Z,89.90
2018-06-15T07:03:03.835Z,88.10
2018-06-15T07:05:31.421Z,87.70
2018-06-15T07:08:05.724Z,89.80
2018-06-15T07:10:33.397Z,88.20
2018-06-15T07:13:01.217Z,88.80
2018-06-15T07:15:28.867Z,90.10
2018-06-15T07:17:56.590Z,88.90
2018-06-15T07:20:24.300Z,90.20
2018-06-15T07:25:26.080Z,88.70
2018-06-15T07:27:53.621Z,88.70
2018-06-15T07:30:21.148Z,87.60
2018-06-15T07:32:48.673Z,87.80
2018-06-15T07:35:16.233Z,86.60
2018-06-15T07:37:43.742Z,85.50
2018-06-15T07:40:11.240Z,85.80
2018-06-15T07:42:38.765Z,84.80
2018-06-15T07:45:06.404Z,84.00
2018-06-15T07:47:34.097Z,84.00
2018-06-15T07:50:02.090Z,85.60
2018-06-15T07:52:29.685Z,84.50
2018-06-15T07:54:57.141Z,84.60
2018-06-15T07:57:24.660Z,85.40
2018-06-15T07:59:52.191Z,85.20
2018-06-15T08:02:19.692Z,84.90
2018-06-15T08:04:47.254Z,82.70
2018-06-15T08:07:14.775Z,79.10
2018-06-15T08:09:42.290Z,77.60
2018-06-15T08:12:09.780Z,77.80
2018-06-15T08:14:37.305Z,77.40
2018-06-15T08:17:04.854Z,79.70
2018-06-15T08:19:32.434Z,75.70
2018-06-15T08:22:00.008Z,73.80
2018-06-15T08:24:27.591Z,73.10
2018-06-15T08:26:55.121Z,71.40
2018-06-15T08:29:22.673Z,72.00
2018-06-15T08:31:50.241Z,72.90
2018-06-15T08:34:17.797Z,74.80
2018-06-15T08:36:45.356Z,72.90
2018-06-15T08:39:12.889Z,72.00
2018-06-15T08:41:40.588Z,72.20
2018-06-15T08:44:08.413Z,75.20
2018-06-15T08:46:36.258Z,71.30
2018-06-15T08:49:03.973Z,72.50
2018-06-15T08:51:31.487Z,71.70
2018-06-15T08:53:59.066Z,69.00
2018-06-15T08:56:26.606Z,68.50
2018-06-15T08:58:54.145Z,69.20
2018-06-15T09:01:21.677Z,69.50
2018-06-15T09:03:49.226Z,71.60
2018-06-15T09:06:16.740Z,71.40
2018-06-15T09:08:44.274Z,68.80
2018-06-15T09:11:11.822Z,68.10
2018-06-15T09:13:39.345Z,68.60
2018-06-15T09:16:06.876Z,71.20
2018-06-15T09:18:34.413Z,72.80
2018-06-15T09:21:01.936Z,70.00
2018-06-15T09:23:29.481Z,71.40
2018-06-15T09:25:57.013Z,73.30
2018-06-15T09:28:24.554Z,74.50
2018-06-15T09:30:52.199Z,70.50
2018-06-15T09:33:19.713Z,69.80
2018-06-15T09:35:47.995Z,69.60
2018-06-15T09:38:15.591Z,70.40
2018-06-15T09:40:43.401Z,69.60
2018-06-15T09:43:10.915Z,69.50
2018-06-15T09:48:06.461Z,70.50
2018-06-15T09:50:34.024Z,71.00
2018-06-15T09:53:01.632Z,73.60
2018-06-15T09:55:29.181Z,70.30
2018-06-15T09:57:56.729Z,70.00
2018-06-15T10:00:29.949Z,67.40
2018-06-15T10:02:57.480Z,68.60
2018-06-15T10:05:25.036Z,67.80
2018-06-15T10:07:52.570Z,66.80
2018-06-15T10:10:20.103Z,59.20
2018-06-15T10:12:47.650Z,62.60
2018-06-15T10:15:15.196Z,64.20
2018-06-15T10:17:42.725Z,57.30
2018-06-15T10:20:10.274Z,59.80
2018-06-15T10:22:37.870Z,58.80
2018-06-15T10:25:05.402Z,59.10
2018-06-15T10:27:32.965Z,61.00
2018-06-15T10:30:00.497Z,59.10
2018-06-15T10:32:28.265Z,59.20
2018-06-15T10:34:55.790Z,60.40
2018-06-15T10:39:50.729Z,58.40
2018-06-15T10:42:18.256Z,58.80
2018-06-15T10:44:45.781Z,58.20
2018-06-15T10:47:13.329Z,59.20
2018-06-15T10:49:40.863Z,60.20
2018-06-15T10:52:08.433Z,58.90
2018-06-15T10:54:36.478Z,57.50
2018-06-15T10:57:04.041Z,55.00
2018-06-15T10:59:31.552Z,57.30
2018-06-15T11:01:59.122Z,56.30
2018-06-15T11:04:26.676Z,56.00
2018-06-15T11:06:54.426Z,56.30
2018-06-15T11:09:22.034Z,54.70
2018-06-15T11:11:49.587Z,54.80
2018-06-15T11:16:44.588Z,52.70
2018-06-15T11:19:12.157Z,52.40
2018-06-15T11:24:07.266Z,53.00
2018-06-15T11:26:34.789Z,50.10
2018-06-15T11:29:02.309Z,50.90
2018-06-15T11:31:29.838Z,51.20
2018-06-15T11:33:57.377Z,50.20
2018-06-15T11:36:24.896Z,49.50
2018-06-15T11:38:52.417Z,51.90
2018-06-15T11:43:47.385Z,55.80
2018-06-15T11:46:14.905Z,54.80
2018-06-15T11:48:42.409Z,54.90
2018-06-15T11:51:09.940Z,52.60
2018-06-15T11:53:37.464Z,52.60
2018-06-15T11:58:32.518Z,53.40
2018-06-15T12:01:00.153Z,52.40
2018-06-15T12:03:27.725Z,51.50
2018-06-15T12:05:55.234Z,53.20
2018-06-15T12:08:22.756Z,51.60
2018-06-15T12:10:50.353Z,51.80
2018-06-15T12:13:18.793Z,51.80
2018-06-15T12:15:47.190Z,49.30
2018-06-15T12:18:14.723Z,50.90
2018-06-15T12:20:42.284Z,50.40
2018-06-15T12:23:09.815Z,51.40
2018-06-15T12:25:37.385Z,51.40
2018-06-15T12:28:07.037Z,53.00
2018-06-15T12:30:34.589Z,49.90
2018-06-15T12:33:02.274Z,49.40
2018-06-15T12:35:30.670Z,48.50
2018-06-15T12:40:25.655Z,53.10
2018-06-15T12:42:53.183Z,52.60
2018-06-15T12:45:27.317Z,48.40
2018-06-15T12:47:54.817Z,48.40
2018-06-15T12:50:22.556Z,48.50
2018-06-15T12:52:50.075Z,48.40
2018-06-15T12:55:17.633Z,49.70
2018-06-15T12:57:45.153Z,49.50
2018-06-15T13:02:40.172Z,47.90
2018-06-15T13:05:07.733Z,49.90
2018-06-15T13:07:35.429Z,48.20
2018-06-15T13:10:03.050Z,49.10
2018-06-15T13:12:30.697Z,49.70
2018-06-15T13:14:58.377Z,47.90
2018-06-15T13:17:25.946Z,49.00
2018-06-15T13:19:53.545Z,48.70
2018-06-15T13:22:21.095Z,48.80
2018-06-15T13:24:48.662Z,48.30
2018-06-15T13:27:16.188Z,48.00
2018-06-15T13:29:43.701Z,47.00
2018-06-15T13:32:11.223Z,47.40
2018-06-15T13:34:38.741Z,45.90
2018-06-15T13:37:06.551Z,46.70
2018-06-15T13:39:35.333Z,46.70
2018-06-15T13:42:04.575Z,47.80
2018-06-15T13:44:32.133Z,47.90
2018-06-15T13:46:59.658Z,47.00
2018-06-15T13:49:27.161Z,47.40
2018-06-15T13:51:54.786Z,45.70
2018-06-15T13:54:22.516Z,45.30
2018-06-15T13:56:50.117Z,50.50
2018-06-15T13:59:17.616Z,46.40
2018-06-15T14:01:45.137Z,46.40
2018-06-15T14:04:12.709Z,47.00
2018-06-15T14:06:40.243Z,47.60
2018-06-15T14:09:08.702Z,44.80
2018-06-15T14:11:36.212Z,45.70
2018-06-15T14:14:03.799Z,44.60
2018-06-15T14:16:31.325Z,45.00
2018-06-15T14:18:58.834Z,45.60
2018-06-15T14:21:26.421Z,46.70
2018-06-15T14:23:53.957Z,46.40
2018-06-15T14:26:22.336Z,42.60
2018-06-15T14:28:50.053Z,44.00
2018-06-15T14:31:17.753Z,46.90
2018-06-15T14:33:45.277Z,47.80
2018-06-15T14:38:40.251Z,47.50
2018-06-15T14:41:07.749Z,44.70
2018-06-15T14:43:35.271Z,44.40
2018-06-15T14:46:02.869Z,45.10
2018-06-15T14:50:57.866Z,43.60
2018-06-15T14:53:25.374Z,43.60
2018-06-15T14:55:52.871Z,44.00
2018-06-15T14:58:20.439Z,42.30
2018-06-15T15:00:48.202Z,41.70
2018-06-15T15:03:15.768Z,44.20
2018-06-15T15:05:43.315Z,43.80
2018-06-15T15:08:10.869Z,41.50
2018-06-15T15:10:38.439Z,42.10
2018-06-15T15:13:09.478Z,42.20
2018-06-15T15:15:36.993Z,43.80
2018-06-15T15:18:04.757Z,43.20
2018-06-15T15:20:32.822Z,41.30
2018-06-15T15:23:00.324Z,41.00
2018-06-15T15:25:27.854Z,41.60
2018-06-15T15:27:55.393Z,42.90
2018-06-15T15:30:22.921Z,42.70
2018-06-15T15:32:50.429Z,41.60
2018-06-15T15:35:17.995Z,41.20
2018-06-15T15:37:45.524Z,39.80
2018-06-15T15:40:13.085Z,38.10
2018-06-15T15:42:40.609Z,36.50
2018-06-15T15:45:08.229Z,37.00
2018-06-15T15:47:35.729Z,36.40
2018-06-15T15:52:30.784Z,32.20
2018-06-15T15:54:58.337Z,33.70
2018-06-15T15:57:25.861Z,30.10
2018-06-15T15:59:53.402Z,29.00
2018-06-15T16:02:20.974Z,29.90
2018-06-15T16:04:48.805Z,31.10
2018-06-15T16:07:16.359Z,27.60
2018-06-15T16:09:43.857Z,27.20
2018-06-15T16:12:11.402Z,26.20
2018-06-15T16:14:38.974Z,25.90
2018-06-15T16:17:06.521Z,25.80
2018-06-15T16:19:40.613Z,25.80
2018-06-15T16:22:08.128Z,26.30
2018-06-15T16:24:36.521Z,26.20
2018-06-15T16:27:04.253Z,26.30
2018-06-15T16:29:31.757Z,26.80
2018-06-15T16:31:59.537Z,28.10
2018-06-15T16:34:27.046Z,28.30
2018-06-15T16:36:54.597Z,28.70
2018-06-15T16:39:22.111Z,31.40
2018-06-15T16:41:49.670Z,34.10
2018-06-15T16:44:17.213Z,35.10
2018-06-15T16:46:44.770Z,37.60
2018-06-15T16:49:12.886Z,37.50
2018-06-15T16:51:42.590Z,39.40
2018-06-15T16:54:10.126Z,41.80
2018-06-15T16:56:37.690Z,38.80
2018-06-15T16:59:06.905Z,37.50
2018-06-15T17:01:34.504Z,37.50
2018-06-15T17:04:02.177Z,36.50
2018-06-15T17:06:30.202Z,37.00
2018-06-15T17:08:57.746Z,37.30
2018-06-15T17:11:25.255Z,36.70
2018-06-15T17:13:52.793Z,36.30
2018-06-15T17:16:20.303Z,36.30
2018-06-15T17:18:47.969Z,37.50
2018-06-15T17:21:16.242Z,36.80
2018-06-15T17:23:44.069Z,34.90
2018-06-15T17:26:12.234Z,33.30
2018-06-15T17:28:39.809Z,34.70
2018-06-15T17:31:07.376Z,34.70
2018-06-15T17:33:34.949Z,34.70
2018-06-15T17:36:03.964Z,34.90
2018-06-15T17:38:32.644Z,33.70
2018-06-15T17:41:00.456Z,34.30
2018-06-15T17:43:27.966Z,35.50
2018-06-15T17:45:55.781Z,34.20
2018-06-15T17:48:23.312Z,34.90
2018-06-15T17:50:50.850Z,33.30
2018-06-15T17:53:19.725Z,30.70
2018-06-15T17:55:47.384Z,34.60
2018-06-15T17:58:14.914Z,33.30
2018-06-15T18:00:42.441Z,35.10
2018-06-15T18:03:10.001Z,37.70
2018-06-15T18:08:05.260Z,42.30
2018-06-15T18:10:32.785Z,43.00
2018-06-15T18:15:27.827Z,43.90
2018-06-15T18:17:55.385Z,45.40
2018-06-15T18:20:22.925Z,45.10
2018-06-15T18:22:50.465Z,46.30
2018-06-15T18:25:18.035Z,45.90
2018-06-15T18:30:13.005Z,47.70
2018-06-15T18:32:40.536Z,47.80
2018-06-15T18:35:08.144Z,46.60
2018-06-15T18:37:35.677Z,47.50
2018-06-15T18:40:03.523Z,48.50
2018-06-15T18:42:31.084Z,47.50
2018-06-15T18:44:58.648Z,47.90
2018-06-15T18:47:26.857Z,49.50
2018-06-15T18:49:54.413Z,50.40
2018-06-15T18:52:21.977Z,50.20
2018-06-15T18:54:49.664Z,50.90
2018-06-15T18:57:17.864Z,50.10
2018-06-15T18:59:45.378Z,54.40
2018-06-15T19:02:14.927Z,55.00
2018-06-15T19:04:42.445Z,55.30
2018-06-15T19:07:09.966Z,55.40
2018-06-15T19:09:37.475Z,56.30
2018-06-15T19:12:05.106Z,55.10
2018-06-15T19:14:32.674Z,54.40
2018-06-15T19:17:00.284Z,54.50
2018-06-15T19:19:27.809Z,54.50
2018-06-15T19:21:55.337Z,55.40
2018-06-15T19:24:24.116Z,56.30
2018-06-15T19:26:51.670Z,56.50
2018-06-15T19:29:19.196Z,56.70
2018-06-15T19:31:46.722Z,56.70
2018-06-15T19:34:14.238Z,58.00
2018-06-15T19:36:41.913Z,57.90
2018-06-15T19:39:16.185Z,57.60
2018-06-15T19:41:44.875Z,57.40
2018-06-15T19:44:12.408Z,57.40
2018-06-15T19:46:39.917Z,57.10
2018-06-15T19:49:07.692Z,56.70
2018-06-15T19:51:37.685Z,57.20
2018-06-15T19:54:05.258Z,57.80
2018-06-15T19:56:32.769Z,58.10
2018-06-15T19:59:01.479Z,59.20
2018-06-15T20:01:29.006Z,59.80
2018-06-15T20:03:56.517Z,60.50
2018-06-15T20:06:24.041Z,62.20
2018-06-15T20:08:51.816Z,60.10
2018-06-15T20:11:19.326Z,60.10
2018-06-15T20:13:46.841Z,62.00
2018-06-15T20:16:14.799Z,62.50
2018-06-15T20:18:42.507Z,64.10
2018-06-15T20:21:10.082Z,64.00
2018-06-15T20:23:37.604Z,63.80
2018-06-15T20:26:05.345Z,65.30
2018-06-15T20:28:32.905Z,65.50
2018-06-15T20:31:00.420Z,65.70
2018-06-15T20:35:55.731Z,67.30
2018-06-15T20:38:23.304Z,67.80
2018-06-15T20:40:51.599Z,67.80
2018-06-15T20:43:19.217Z,67.00
2018-06-15T20:45:46.740Z,67.30
2018-06-15T20:48:14.313Z,67.90
2018-06-15T20:50:41.835Z,69.20
2018-06-15T20:53:09.426Z,69.50
2018-06-15T20:55:36.929Z,69.20
2018-06-15T20:58:04.533Z,69.40
2018-06-15T21:00:32.101Z,70.40
2018-06-15T21:02:59.657Z,71.00
2018-06-15T21:05:27.205Z,70.70
2018-06-15T21:07:54.733Z,71.00
2018-06-15T21:10:22.322Z,71.50
2018-06-15T21:12:49.878Z,72.70
2018-06-15T21:15:17.421Z,73.00
2018-06-15T21:17:44.920Z,74.20
2018-06-15T21:20:12.482Z,74.20
2018-06-15T21:22:39.981Z,74.10
2018-06-15T21:25:08.011Z,74.60
2018-06-15T21:27:35.537Z,74.90
2018-06-15T21:30:03.159Z,76.30
2018-06-15T21:32:30.703Z,76.30
2018-06-15T21:34:58.493Z,76.10
2018-06-15T21:37:26.020Z,75.90
2018-06-15T21:39:53.591Z,75.30
2018-06-15T21:42:21.101Z,76.00
2018-06-15T21:44:48.837Z,77.20
2018-06-15T21:47:16.664Z,76.70
2018-06-15T21:49:44.241Z,76.80
2018-06-15T21:52:11.796Z,77.20
2018-06-15T21:54:39.582Z,78.00
2018-06-15T21:57:07.460Z,78.10
2018-06-15T21:59:35.044Z,78.70
2018-06-15T22:02:02.616Z,78.30
2018-06-15T22:04:30.357Z,78.60
2018-06-15T22:06:57.910Z,79.00
2018-06-15T22:09:25.456Z,79.50
2018-06-15T22:11:53.031Z,79.90
2018-06-15T22:14:20.783Z,79.80
2018-06-15T22:16:51.389Z,80.70
2018-06-15T22:19:23.066Z,81.00
2018-06-15T22:21:52.093Z,81.20
2018-06-15T22:24:19.937Z,81.70
2018-06-15T22:26:47.532Z,81.80
2018-06-15T22:29:15.135Z,82.10
2018-06-15T22:31:42.820Z,82.00
2018-06-15T22:34:10.369Z,82.30
2018-06-15T22:36:39.088Z,82.00
2018-06-15T22:39:09.990Z,81.80
2018-06-15T22:41:37.549Z,81.80
2018-06-15T22:44:05.114Z,82.30
2018-06-15T22:46:32.678Z,82.50
2018-06-15T22:49:00.185Z,82.20
2018-06-15T22:51:27.734Z,82.60
2018-06-15T22:53:55.266Z,82.80
2018-06-15T22:56:22.834Z,82.40
2018-06-15T22:58:50.381Z,82.40
2018-06-15T23:01:17.958Z,82.40
2018-06-15T23:03:45.494Z,82.40
2018-06-15T23:06:13.057Z,82.60
2018-06-15T23:08:40.638Z,84.70
2018-06-15T23:11:08.225Z,83.40
2018-06-15T23:13:35.788Z,83.80
2018-06-15T23:16:03.389Z,83.90
2018-06-15T23:18:30.947Z,84.50
2018-06-15T23:20:58.506Z,84.20
2018-06-15T23:23:26.189Z,85.00
2018-06-15T23:25:53.873Z,84.30
2018-06-15T23:28:21.409Z,84.30
2018-06-15T23:30:48.922Z,84.20
2018-06-15T23:33:16.449Z,84.90
2018-06-15T23:35:43.952Z,85.70
2018-06-15T23:38:11.474Z,85.80
2018-06-15T23:40:39.053Z,86.10
2018-06-15T23:43:06.578Z,85.60
2018-06-15T23:45:34.122Z,86.00
2018-06-15T23:48:01.678Z,85.50
2018-06-15T23:50:29.262Z,85.70
2018-06-15T23:52:57.206Z,85.80
2018-06-15T23:55:24.766Z,85.70
2018-06-15T23:57:52.330Z,85.40
